createdAt,value
2019-04-23T00:00:07.107Z,99998
2019-04-23T00:00:23.369Z,99995.015
2019-04-23T00:00:45.035Z,99995.867
2019-04-23T00:01:14.480Z,99999.07
2019-04-23T00:01:28.297Z,100001.17
2019-04-23T00:01:41.659Z,99998.796
2019-04-23T00:02:03.244Z,100000.25
2019-04-23T00:02:18.356Z,99996.734
2019-04-23T00:02:33.023Z,99997.5
2019-04-23T00:03:05.314Z,99995.492
2019-04-23T00:03:18.564Z,99993.867
2019-04-23T00:03:38.531Z,99995.117
2019-04-23T00:03:51.373Z,99994.078
2019-04-23T00:04:09.804Z,99990.703
2019-04-23T00:04:28.185Z,99997.71
2019-04-23T00:04:46.536Z,99991.039
2019-04-23T00:05:16.745Z,99987.953
2019-04-23T00:06:47.379Z,99990.921
2019-04-23T00:06:47.380Z,99992.593
2019-04-23T00:07:06.034Z,99993.359
2019-04-23T00:07:15.032Z,99988.875
2019-04-23T00:07:35.204Z,99992.593
2019-04-23T00:07:48.170Z,99988.75
2019-04-23T00:08:25.556Z,99986.64
2019-04-23T00:08:48.556Z,99986.296
2019-04-23T00:09:06.406Z,99983.421
2019-04-23T00:09:25.877Z,99983.125
2019-04-23T00:09:38.262Z,99981.148
2019-04-23T00:10:03.257Z,99981.953
2019-04-23T00:10:18.594Z,99984.062
2019-04-23T00:10:33.012Z,99985.359
2019-04-23T00:10:58.241Z,99980.562
2019-04-23T00:11:32.270Z,99981.921
2019-04-23T00:11:51.230Z,99983.476
2019-04-23T00:12:18.990Z,99983.164
2019-04-23T00:12:29.733Z,99982.187
2019-04-23T00:12:47.685Z,99981.546
2019-04-23T00:13:03.823Z,99982.726
2019-04-23T00:13:29.108Z,99980.445
2019-04-23T00:13:48.214Z,99980.656
2019-04-23T00:14:05.399Z,99981.109
2019-04-23T00:14:26.997Z,99977.906
2019-04-23T00:14:54.571Z,99981.968
2019-04-23T00:15:23.076Z,99977.593
2019-04-23T00:15:40.038Z,99972.953
2019-04-23T00:16:02.803Z,99975.562
2019-04-23T00:16:20.066Z,99977.984
2019-04-23T00:16:38.044Z,99973.609
2019-04-23T00:16:57.419Z,99971.39
2019-04-23T00:17:21.195Z,99974.296
2019-04-23T00:17:36.798Z,99975.281
2019-04-23T00:18:12.010Z,99974.296
2019-04-23T00:18:12.011Z,99971.921
2019-04-23T00:18:36.606Z,99974.359
2019-04-23T00:18:45.927Z,99977.335
2019-04-23T00:19:10.123Z,99971.328
2019-04-23T00:19:30.791Z,99972.914
2019-04-23T00:19:46.979Z,99970.89
2019-04-23T00:20:07.686Z,99973.328
2019-04-23T00:20:25.153Z,99976.21
2019-04-23T00:20:47.528Z,99972.273
2019-04-23T00:21:05.620Z,99971.796
2019-04-23T00:21:26.368Z,99976.984
2019-04-23T00:21:56.636Z,99978.289
2019-04-23T00:22:19.764Z,99977.031
2019-04-23T00:22:43.002Z,99979.031
2019-04-23T00:23:16.101Z,99972.718
2019-04-23T00:23:44.285Z,99973.468
2019-04-23T00:24:01.328Z,99977.914
2019-04-23T00:24:27.868Z,99974.718
2019-04-23T00:24:56.596Z,99972.812
2019-04-23T00:25:43.447Z,99968.203
2019-04-23T00:25:52.406Z,99965.007
2019-04-23T00:26:07.654Z,99968.093
2019-04-23T00:26:30.321Z,99965.531
2019-04-23T00:26:50.094Z,99966.187
2019-04-23T00:27:15.292Z,99967.484
2019-04-23T00:27:28.644Z,99964.781
2019-04-23T00:27:49.444Z,99967.859
2019-04-23T00:28:06.364Z,99966.679
2019-04-23T00:28:40.685Z,99971.609
2019-04-23T00:29:05.194Z,99972.406
2019-04-23T00:29:18.307Z,99965.234
2019-04-23T00:29:45.786Z,99967.148
2019-04-23T00:30:00.657Z,99964.312
2019-04-23T00:30:16.693Z,99963.304
2019-04-23T00:30:42.640Z,99962.906
2019-04-23T00:30:54.796Z,99962.148
2019-04-23T00:31:18.086Z,99963.281
2019-04-23T00:31:36.027Z,99963.656
2019-04-23T00:31:49.362Z,99960.789
2019-04-23T00:32:14.957Z,99959.21
2019-04-23T00:32:28.430Z,99957.203
2019-04-23T00:32:45.955Z,99959.218
2019-04-23T00:33:11.640Z,99957.968
2019-04-23T00:33:24.668Z,99960.617
2019-04-23T00:33:40.696Z,99955.156
2019-04-23T00:34:00.803Z,99957.093
2019-04-23T00:34:24.449Z,99956.117
2019-04-23T00:34:47.131Z,99953.773
2019-04-23T00:34:59.404Z,99954.75
2019-04-23T00:35:17.861Z,99954.468
2019-04-23T00:35:38.170Z,99956.085
2019-04-23T00:35:54.626Z,99952.093
2019-04-23T00:36:19.285Z,99955.921
2019-04-23T00:37:01.150Z,99955.171
2019-04-23T00:37:18.225Z,99957.406
2019-04-23T00:37:47.139Z,99957.242
2019-04-23T00:38:18.004Z,99953.171
2019-04-23T00:38:33.380Z,99954.695
2019-04-23T00:38:53.861Z,99956.484
2019-04-23T00:39:08.004Z,99952.351
2019-04-23T00:39:22.841Z,99953.89
2019-04-23T00:39:46.605Z,99953.648
2019-04-23T00:40:02.344Z,99953.015
2019-04-23T00:40:25.426Z,99951.953
2019-04-23T00:40:43.431Z,99950.656
2019-04-23T00:41:02.597Z,99947.828
2019-04-23T00:41:24.379Z,99951.031
2019-04-23T00:41:57.161Z,99948.171
2019-04-23T00:42:20.044Z,99947.687
2019-04-23T00:42:53.051Z,99946.757
2019-04-23T00:43:14.804Z,99947.132
2019-04-23T00:43:32.401Z,99944.875
2019-04-23T00:43:54.323Z,99946.156
2019-04-23T00:44:14.585Z,99944.546
2019-04-23T00:44:32.008Z,99945.593
2019-04-23T00:44:51.369Z,99946.734
2019-04-23T00:45:06.856Z,99946.25
2019-04-23T00:45:32.366Z,99942.718
2019-04-23T00:45:59.099Z,99946.296
2019-04-23T00:46:06.051Z,99942.281
2019-04-23T00:46:27.736Z,99940.07
2019-04-23T00:46:39.846Z,99943.484
2019-04-23T00:47:00.644Z,99944.781
2019-04-23T00:47:25.184Z,99942.242
2019-04-23T00:47:54.204Z,99943.296
2019-04-23T00:48:01.556Z,99942.312
2019-04-23T00:48:27.676Z,99941.992
2019-04-23T00:48:42.534Z,99942.859
2019-04-23T00:48:57.397Z,99940.14
2019-04-23T00:49:19.644Z,99938.859
2019-04-23T00:49:39.554Z,99941.343
2019-04-23T00:49:58.441Z,99938.75
2019-04-23T00:50:19.163Z,99938.625
2019-04-23T00:50:37.899Z,99940.25
2019-04-23T00:51:01.781Z,99945
2019-04-23T00:51:30.095Z,99935.367
2019-04-23T00:51:49.474Z,99939.89
2019-04-23T00:52:05.690Z,99937.031
2019-04-23T00:52:31.803Z,99940
2019-04-23T00:52:45.544Z,99937.25
2019-04-23T00:53:03.395Z,99935.5
2019-04-23T00:53:21.888Z,99936.484
2019-04-23T00:53:36.824Z,99939.242
2019-04-23T00:53:56.341Z,99935.07
2019-04-23T00:54:25.338Z,99937.062
2019-04-23T00:54:39.025Z,99936.578
2019-04-23T00:55:03.927Z,99936.937
2019-04-23T00:55:14.311Z,99938.609
2019-04-23T00:55:55.472Z,99936.14
2019-04-23T00:55:55.474Z,99936.07
2019-04-23T00:56:31.746Z,99937.968
2019-04-23T00:57:00.526Z,99936.937
2019-04-23T00:57:14.783Z,99932.468
2019-04-23T00:57:48.290Z,99935.476
2019-04-23T00:58:12.321Z,99935.718
2019-04-23T00:58:47.519Z,99934.625
2019-04-23T00:59:05.110Z,99932.093
2019-04-23T00:59:26.592Z,99936.578
2019-04-23T00:59:53.413Z,99929.828
2019-04-23T01:00:09.961Z,99932.421
2019-04-23T01:00:25.814Z,99932.632
2019-04-23T01:01:02.256Z,99934.625
2019-04-23T01:01:17.821Z,99931.468
2019-04-23T01:01:42.353Z,99934.109
2019-04-23T01:02:00.567Z,99929.781
2019-04-23T01:02:16.389Z,99930.75
2019-04-23T01:02:36.744Z,99933.46
2019-04-23T01:02:58.779Z,99931.937
2019-04-23T01:03:11.392Z,99930.203
2019-04-23T01:03:25.021Z,99932.585
2019-04-23T01:03:51.617Z,99930.046
2019-04-23T01:04:04.572Z,99930.281
2019-04-23T01:04:31.437Z,99930.445
2019-04-23T01:04:47.484Z,99931.953
2019-04-23T01:05:10.115Z,99930.492
2019-04-23T01:05:40.855Z,99928.835
2019-04-23T01:05:58.510Z,99931.14
2019-04-23T01:06:06.105Z,99930.382
2019-04-23T01:06:36.851Z,99927.64
2019-04-23T01:07:18.202Z,99932.546
2019-04-23T01:07:37.935Z,99928.507
2019-04-23T01:07:57.662Z,99931.265
2019-04-23T01:08:18.269Z,99930.937
2019-04-23T01:08:35.176Z,99931.953
2019-04-23T01:08:54.947Z,99931.796
2019-04-23T01:09:13.883Z,99935.109
2019-04-23T01:09:38.488Z,99934.515
2019-04-23T01:09:52.254Z,99934.515
2019-04-23T01:10:13.782Z,99934.875
2019-04-23T01:10:26.666Z,99933.312
2019-04-23T01:10:51.915Z,99934.406
2019-04-23T01:11:22.640Z,99940.937
2019-04-23T01:11:43.159Z,99934.578
2019-04-23T01:12:05.629Z,99934.734
2019-04-23T01:12:31.027Z,99930.531
2019-04-23T01:12:45.751Z,99934.789
2019-04-23T01:13:22.165Z,99933.875
2019-04-23T01:13:42.474Z,99927.875
2019-04-23T01:14:00.646Z,99926.453
2019-04-23T01:14:19.934Z,99924.406
2019-04-23T01:14:38.224Z,99922.796
2019-04-23T01:14:55.001Z,99924.75
2019-04-23T01:15:18.681Z,99923.609
2019-04-23T01:15:52.185Z,99922.765
2019-04-23T01:16:09.801Z,99923.687
2019-04-23T01:16:28.146Z,99922.812
2019-04-23T01:16:47.680Z,99922.164
2019-04-23T01:17:16.406Z,99926.703
2019-04-23T01:17:31.666Z,99921.562
2019-04-23T01:17:46.693Z,99924.359
2019-04-23T01:18:10.747Z,99921.242
2019-04-23T01:18:37.659Z,99916.953
2019-04-23T01:18:57.612Z,99920.484
2019-04-23T01:19:24.209Z,99922.5
2019-04-23T01:19:24.216Z,99923.148
2019-04-23T01:19:43.056Z,99922.343
2019-04-23T01:20:00.919Z,99917.093
2019-04-23T01:20:20.397Z,99925.515
2019-04-23T01:20:36.400Z,99917.25
2019-04-23T01:21:06.126Z,99914.109
2019-04-23T01:21:25.135Z,99918.656
2019-04-23T01:21:43.973Z,99916.789
2019-04-23T01:22:02.913Z,99911.765
2019-04-23T01:22:21.905Z,99919.828
2019-04-23T01:22:40.817Z,99918.14
2019-04-23T01:22:59.888Z,99914.578
2019-04-23T01:23:20.495Z,99914.578
2019-04-23T01:23:44.204Z,99918.718
2019-04-23T01:24:02.477Z,99917.593
2019-04-23T01:24:20.029Z,99921.796
2019-04-23T01:24:36.999Z,99917.468
2019-04-23T01:25:02.761Z,99916.703
2019-04-23T01:25:20.862Z,99918.523
2019-04-23T01:25:42.518Z,99916.703
2019-04-23T01:25:58.733Z,99916.906
2019-04-23T01:26:29.224Z,99913.226
2019-04-23T01:26:49.874Z,99915.984
2019-04-23T01:27:21.971Z,99912.617
2019-04-23T01:27:54.404Z,99912.617
2019-04-23T01:28:07.455Z,99912.031
2019-04-23T01:28:26.420Z,99914.25
2019-04-23T01:28:47.513Z,99913.546
2019-04-23T01:29:06.523Z,99911.585
2019-04-23T01:29:28.103Z,99911.437
2019-04-23T01:29:42.297Z,99913.695
2019-04-23T01:30:19.204Z,99911.64
2019-04-23T01:30:40.325Z,99913.171
2019-04-23T01:31:00.731Z,99909.296
2019-04-23T01:31:19.902Z,99914.031
2019-04-23T01:31:40.898Z,99913.546
2019-04-23T01:31:56.921Z,99910.304
2019-04-23T01:32:15.536Z,99907.445
2019-04-23T01:32:53.405Z,99910.203
2019-04-23T01:33:17.966Z,99908.953
2019-04-23T01:33:37.526Z,99907.015
2019-04-23T01:33:55.214Z,99907.546
2019-04-23T01:34:12.824Z,99907.132
2019-04-23T01:34:31.025Z,99908.281
2019-04-23T01:34:55.724Z,99907.14
2019-04-23T01:35:18.746Z,99904.765
2019-04-23T01:35:47.777Z,99904.64
2019-04-23T01:35:47.778Z,99906.578
2019-04-23T01:36:15.971Z,99904.203
2019-04-23T01:36:35.387Z,99906.468
2019-04-23T01:37:00.447Z,99908.265
2019-04-23T01:37:17.908Z,99907.281
2019-04-23T01:38:10.842Z,99906.64
2019-04-23T01:38:18.189Z,99905.062
2019-04-23T01:38:38.790Z,99904.664
2019-04-23T01:38:53.292Z,99905.554
2019-04-23T01:39:27.242Z,99904.875
2019-04-23T01:39:52.301Z,99904.218
2019-04-23T01:40:11.659Z,99903.25
2019-04-23T01:40:31.740Z,99902.984
2019-04-23T01:40:45.569Z,99902.25
2019-04-23T01:41:07.564Z,99904.046
2019-04-23T01:41:26.357Z,99902.593
2019-04-23T01:41:47.381Z,99899
2019-04-23T01:42:11.374Z,99905.96
2019-04-23T01:42:28.239Z,99902.921
2019-04-23T01:42:58.441Z,99905.406
2019-04-23T01:43:22.390Z,99902.406
2019-04-23T01:43:40.871Z,99903.07
2019-04-23T01:44:13.600Z,99900.843
2019-04-23T01:44:21.441Z,99904.078
2019-04-23T01:44:41.911Z,99901.093
2019-04-23T01:44:59.857Z,99900.484
2019-04-23T01:45:19.698Z,99897.898
2019-04-23T01:45:26.792Z,99898.921
2019-04-23T01:45:48.990Z,99900.5
2019-04-23T01:46:12.643Z,99900.703
2019-04-23T01:46:35.392Z,99904.742
2019-04-23T01:47:07.549Z,99901.593
2019-04-23T01:47:30.218Z,99901.476
2019-04-23T01:47:49.445Z,99900.835
2019-04-23T01:48:17.665Z,99900.023
2019-04-23T01:48:25.916Z,99902.171
2019-04-23T01:48:46.724Z,99897.046
2019-04-23T01:49:05.568Z,99895.953
2019-04-23T01:49:30.436Z,99899.843
2019-04-23T01:49:44.352Z,99899.031
2019-04-23T01:50:08.046Z,99899.39
2019-04-23T01:50:27.376Z,99899.687
2019-04-23T01:50:43.260Z,99894.421
2019-04-23T01:51:06.061Z,99897.781
2019-04-23T01:51:18.351Z,99903.726
2019-04-23T01:51:39.536Z,99900.531
2019-04-23T01:52:14.309Z,99898.796
2019-04-23T01:52:37.511Z,99895.562
2019-04-23T01:53:14.270Z,99896.937
2019-04-23T01:53:33.135Z,99901.585
2019-04-23T01:53:49.386Z,99901.906
2019-04-23T01:54:08.972Z,99896.406
2019-04-23T01:54:30.179Z,99897.546
2019-04-23T01:54:45.074Z,99894.718
2019-04-23T01:55:07.679Z,99895.859
2019-04-23T01:55:25.808Z,99899.531
2019-04-23T01:56:04.616Z,99891.687
2019-04-23T01:56:38.350Z,99892.992
2019-04-23T01:57:01.065Z,99895.898
2019-04-23T01:57:22.656Z,99895.898
2019-04-23T01:57:37.337Z,99895.687
2019-04-23T01:58:05.633Z,99891.898
2019-04-23T01:58:31.675Z,99895.25
2019-04-23T01:58:51.710Z,99888.82
2019-04-23T01:59:10.630Z,99891.421
2019-04-23T01:59:31.081Z,99892.265
2019-04-23T01:59:54.457Z,99896.109
2019-04-23T02:00:15.513Z,99890.687
2019-04-23T02:00:28.531Z,99890.25
2019-04-23T02:00:46.696Z,99892.515
2019-04-23T02:01:06.384Z,99889.445
2019-04-23T02:01:25.121Z,99890.625
2019-04-23T02:01:49.899Z,99889.812
2019-04-23T02:02:04.370Z,99892.562
2019-04-23T02:02:25.979Z,99893.218
2019-04-23T02:02:42.932Z,99887.156
2019-04-23T02:03:00.646Z,99885.703
2019-04-23T02:03:54.170Z,99885.937
2019-04-23T02:04:16.340Z,99884.031
2019-04-23T02:04:34.384Z,99884.812
2019-04-23T02:05:00.941Z,99882.593
2019-04-23T02:05:15.507Z,99882.906
2019-04-23T02:05:47.895Z,99884.046
2019-04-23T02:06:06.548Z,99884.078
2019-04-23T02:06:24.601Z,99884.734
2019-04-23T02:06:44.658Z,99881.382
2019-04-23T02:07:10.859Z,99879.937
2019-04-23T02:07:29.383Z,99881.921
2019-04-23T02:08:03.111Z,99882.359
2019-04-23T02:08:19.143Z,99879
2019-04-23T02:08:39.408Z,99881.921
2019-04-23T02:08:58.064Z,99879.656
2019-04-23T02:09:16.299Z,99878.843
2019-04-23T02:09:41.621Z,99880.312
2019-04-23T02:10:20.330Z,99879.21
2019-04-23T02:10:50.745Z,99876.148
2019-04-23T02:11:25.141Z,99880.554
2019-04-23T02:11:31.461Z,99877.187
2019-04-23T02:11:50.452Z,99877.234
2019-04-23T02:12:10.905Z,99878.812
2019-04-23T02:12:32.797Z,99879.671
2019-04-23T02:13:10.322Z,99878.898
2019-04-23T02:13:30.300Z,99876.796
2019-04-23T02:13:48.605Z,99875.984
2019-04-23T02:14:01.310Z,99882.781
2019-04-23T02:14:19.572Z,99878.734
2019-04-23T02:14:41.388Z,99877.609
2019-04-23T02:15:02.014Z,99877.492
2019-04-23T02:15:22.788Z,99876.523
2019-04-23T02:16:09.975Z,99876.531
2019-04-23T02:16:18.751Z,99871.718
2019-04-23T02:16:35.494Z,99869.984
2019-04-23T02:16:59.866Z,99873.093
2019-04-23T02:17:15.595Z,99868.921
2019-04-23T02:17:37.544Z,99872.64
2019-04-23T02:17:57.809Z,99874.906
2019-04-23T02:18:11.319Z,99871.078
2019-04-23T02:18:30.328Z,99869.421
2019-04-23T02:18:47.276Z,99868.156
2019-04-23T02:19:09.597Z,99868.281
2019-04-23T02:19:28.856Z,99867.562
2019-04-23T02:19:51.084Z,99869.296
2019-04-23T02:20:08.729Z,99869.468
2019-04-23T02:20:42.614Z,99866.921
2019-04-23T02:20:58.834Z,99865.187
2019-04-23T02:21:22.122Z,99866
2019-04-23T02:21:37.793Z,99863.687
2019-04-23T02:22:03.471Z,99863.25
2019-04-23T02:22:24.366Z,99866.445
2019-04-23T02:22:36.681Z,99866.968
2019-04-23T02:23:03.924Z,99869.023
2019-04-23T02:23:18.141Z,99864.859
2019-04-23T02:23:47.825Z,99862.757
2019-04-23T02:24:24.204Z,99863.734
2019-04-23T02:24:33.552Z,99861.632
2019-04-23T02:24:53.842Z,99864.101
2019-04-23T02:25:12.998Z,99858.281
2019-04-23T02:25:39.243Z,99861.343
2019-04-23T02:26:02.342Z,99857.382
2019-04-23T02:26:36.676Z,99857.218
2019-04-23T02:26:55.342Z,99859.648
2019-04-23T02:27:18.801Z,99859.492
2019-04-23T02:27:41.895Z,99858.523
2019-04-23T02:28:15.388Z,99857.796
2019-04-23T02:28:38.361Z,99857.593
2019-04-23T02:29:28.240Z,99856.218
2019-04-23T02:29:43.311Z,99858.007
2019-04-23T02:30:05.165Z,99857.195
2019-04-23T02:30:25.856Z,99854.078
2019-04-23T02:32:08.227Z,99850.781
2019-04-23T02:32:28.650Z,99856.546
2019-04-23T02:32:59.042Z,99855.468
2019-04-23T02:33:17.314Z,99852.406
2019-04-23T02:34:00.260Z,99857.171
2019-04-23T02:34:11.901Z,99859.031
2019-04-23T02:34:30.760Z,99852.312
2019-04-23T02:35:32.279Z,99852.796
2019-04-23T02:35:58.091Z,99850.703
2019-04-23T02:36:44.847Z,99851.39
2019-04-23T02:36:54.321Z,99849.289
2019-04-23T02:37:21.865Z,99851.875
2019-04-23T02:37:44.901Z,99849.453
2019-04-23T02:38:00.035Z,99850.585
2019-04-23T02:38:18.282Z,99853
2019-04-23T02:38:39.946Z,99849.976
2019-04-23T02:39:21.622Z,99851.078
2019-04-23T02:39:28.255Z,99852.078
2019-04-23T02:40:03.676Z,99850.843
2019-04-23T02:40:13.414Z,99856.132
2019-04-23T02:40:37.077Z,99854.953
2019-04-23T02:40:53.151Z,99859.359
2019-04-23T02:41:33.679Z,99850.875
2019-04-23T02:41:45.499Z,99852.609
2019-04-23T02:42:04.457Z,99851.109
2019-04-23T02:42:28.018Z,99850.179
2019-04-23T02:42:49.348Z,99851.156
2019-04-23T02:43:19.911Z,99852.781
2019-04-23T02:43:58.690Z,99850.031
2019-04-23T02:44:23.825Z,99852.125
2019-04-23T02:44:44.693Z,99847.718
2019-04-23T02:45:08.819Z,99848.093
2019-04-23T02:45:26.459Z,99850.39
2019-04-23T02:45:56.157Z,99846.312
2019-04-23T02:46:40.589Z,99843.226
2019-04-23T02:47:07.747Z,99847.929
2019-04-23T02:47:21.562Z,99845.343
2019-04-23T02:47:41.650Z,99841.984
2019-04-23T02:48:18.756Z,99842.468
2019-04-23T02:48:30.373Z,99842.789
2019-04-23T02:48:55.823Z,99840.218
2019-04-23T02:49:16.932Z,99843.531
2019-04-23T02:49:43.233Z,99838.671
2019-04-23T02:50:06.396Z,99840.859
2019-04-23T02:51:10.075Z,99839.031
2019-04-23T02:51:41.732Z,99838.835
2019-04-23T02:51:50.607Z,99837.421
2019-04-23T02:52:07.858Z,99840.976
2019-04-23T02:52:36.791Z,99836.281
2019-04-23T02:52:46.854Z,99833.218
2019-04-23T02:53:14.185Z,99836.132
2019-04-23T02:54:03.774Z,99835.281
2019-04-23T02:54:15.355Z,99831.609
2019-04-23T02:54:56.362Z,99832.078
2019-04-23T02:56:10.225Z,99838.835
2019-04-23T02:56:21.355Z,99836.453
2019-04-23T02:56:37.228Z,99841.187
2019-04-23T02:57:05.406Z,99832.125
2019-04-23T02:57:41.248Z,99833.671
2019-04-23T02:57:49.865Z,99837.789
2019-04-23T02:58:09.765Z,99834.234
2019-04-23T02:58:41.622Z,99834.078
2019-04-23T02:59:09.970Z,99832.289
2019-04-23T02:59:27.893Z,99833.64
2019-04-23T02:59:53.413Z,99834.078
2019-04-23T03:00:37.814Z,99828.984
2019-04-23T03:01:53.561Z,99829.953
2019-04-23T03:02:04.975Z,99826.765
2019-04-23T03:02:23.689Z,99834.882
2019-04-23T03:03:05.694Z,99831.25
2019-04-23T03:03:13.272Z,99831.89
2019-04-23T03:03:33.101Z,99832.179
2019-04-23T03:03:59.377Z,99832.218
2019-04-23T03:05:00.426Z,99833.421
2019-04-23T03:05:24.254Z,99829.062
2019-04-23T03:06:18.671Z,99828.671
2019-04-23T03:07:00.830Z,99829.468
2019-04-23T03:07:22.026Z,99824.617
2019-04-23T03:08:05.960Z,99827.921
2019-04-23T03:08:16.476Z,99828.5
2019-04-23T03:09:12.235Z,99828.367
2019-04-23T03:09:35.865Z,99825.585
2019-04-23T03:09:49.719Z,99823.968
2019-04-23T03:10:30.429Z,99825.82
2019-04-23T03:10:59.339Z,99828.25
2019-04-23T03:11:47.680Z,99823.843
2019-04-23T03:12:14.518Z,99829.539
2019-04-23T03:12:46.313Z,99824.359
2019-04-23T03:13:08.888Z,99827.234
2019-04-23T03:14:00.132Z,99826.625
2019-04-23T03:14:39.720Z,99822.906
2019-04-23T03:15:08.679Z,99821.992
2019-04-23T03:15:28.037Z,99821.414
2019-04-23T03:16:15.214Z,99820.968
2019-04-23T03:16:26.739Z,99824.531
2019-04-23T03:17:24.015Z,99818.921
2019-04-23T03:17:57.263Z,99824.968
2019-04-23T03:18:20.299Z,99824.164
2019-04-23T03:19:23.433Z,99817.343
2019-04-23T03:19:45.195Z,99818.796
2019-04-23T03:19:45.198Z,99817.171
2019-04-23T03:20:07.279Z,99826.593
2019-04-23T03:20:47.720Z,99820.085
2019-04-23T03:21:42.388Z,99820.578
2019-04-23T03:21:55.695Z,99821.507
2019-04-23T03:22:13.793Z,99820.492
2019-04-23T03:22:44.143Z,99822.921
2019-04-23T03:23:41.533Z,99820.421
2019-04-23T03:24:20.522Z,99821.39
2019-04-23T03:24:36.075Z,99822.562
2019-04-23T03:25:09.857Z,99822.562
2019-04-23T03:25:35.448Z,99820.14
2019-04-23T03:25:44.533Z,99817.304
2019-04-23T03:26:13.407Z,99821.765
2019-04-23T03:26:55.035Z,99817.234
2019-04-23T03:27:55.175Z,99819.57
2019-04-23T03:28:26.675Z,99815.257
2019-04-23T03:28:42.597Z,99819.421
2019-04-23T03:29:19.289Z,99815.898
2019-04-23T03:29:39.591Z,99812.234
2019-04-23T03:30:26.051Z,99813.687
2019-04-23T03:30:57.821Z,99814.539
2019-04-23T03:32:44.420Z,99813.89
2019-04-23T03:32:44.428Z,99811.828
2019-04-23T03:33:52.192Z,99815.078
2019-04-23T03:35:07.823Z,99813.703
2019-04-23T03:36:56.239Z,99809.187
2019-04-23T03:38:05.625Z,99810.21
2019-04-23T03:38:18.668Z,99808.757
2019-04-23T03:38:37.391Z,99811.835
2019-04-23T03:39:17.348Z,99814
2019-04-23T03:39:28.136Z,99812.265
2019-04-23T03:41:06.403Z,99815.765
2019-04-23T03:41:39.012Z,99815.32
2019-04-23T03:41:59.323Z,99812.734
2019-04-23T03:42:32.837Z,99815.812
2019-04-23T03:42:57.355Z,99810.437
2019-04-23T03:43:14.107Z,99817.312
2019-04-23T03:44:01.201Z,99816.25
2019-04-23T03:44:47.563Z,99814.031
2019-04-23T03:45:15.718Z,99816.953
2019-04-23T03:45:36.655Z,99816.14
2019-04-23T03:45:58.526Z,99816.296
2019-04-23T03:46:49.406Z,99814.578
2019-04-23T03:47:01.462Z,99816.515
2019-04-23T03:47:23.855Z,99813.328
2019-04-23T03:48:05.417Z,99813.601
2019-04-23T03:48:25.196Z,99815.265
2019-04-23T03:48:40.805Z,99813.843
2019-04-23T03:49:29.668Z,99815.906
2019-04-23T03:50:04.207Z,99815.468
2019-04-23T03:50:14.518Z,99816.265
2019-04-23T03:51:01.035Z,99816.226
2019-04-23T03:51:50.999Z,99817.203
2019-04-23T03:52:11.818Z,99818.5
2019-04-23T03:52:38.182Z,99820.429
2019-04-23T03:53:02.765Z,99815.953
2019-04-23T03:53:32.145Z,99810.335
2019-04-23T03:54:03.363Z,99813.445
2019-04-23T03:54:48.418Z,99815.343
2019-04-23T03:55:09.978Z,99815.781
2019-04-23T03:55:18.139Z,99809.203
2019-04-23T03:55:36.875Z,99815.023
2019-04-23T03:56:10.588Z,99812.593
2019-04-23T03:56:44.395Z,99811.468
2019-04-23T03:57:02.901Z,99813.289
2019-04-23T03:57:42.739Z,99811.671
2019-04-23T03:58:10.244Z,99812
2019-04-23T03:58:27.562Z,99814.296
2019-04-23T03:58:57.904Z,99812.203
2019-04-23T03:59:26.271Z,99808.968
2019-04-23T03:59:36.359Z,99811.39
2019-04-23T03:59:44.409Z,99814.789
2019-04-23T04:00:10.946Z,99812.039
2019-04-23T04:00:55.827Z,99812.195
2019-04-23T04:01:21.286Z,99811.515
2019-04-23T04:01:34.122Z,99808.765
2019-04-23T04:02:30.468Z,99808.312
2019-04-23T04:02:48.134Z,99809.289
2019-04-23T04:03:14.551Z,99808.156
2019-04-23T04:04:03.580Z,99810.218
2019-04-23T04:05:00.287Z,99805.828
2019-04-23T04:06:05.060Z,99805.859
2019-04-23T04:06:33.256Z,99806.679
2019-04-23T04:06:58.801Z,99809.375
2019-04-23T04:07:18.237Z,99808.781
2019-04-23T04:07:27.618Z,99808.562
2019-04-23T04:09:05.785Z,99807.156
2019-04-23T04:09:25.761Z,99807.437
2019-04-23T04:09:33.926Z,99808.781
2019-04-23T04:09:47.164Z,99805.875
2019-04-23T04:10:04.814Z,99810.234
2019-04-23T04:10:23.952Z,99803.609
2019-04-23T04:10:51.724Z,99807.203
2019-04-23T04:11:19.066Z,99808.578
2019-04-23T04:11:26.947Z,99810.554
2019-04-23T04:12:03.479Z,99807.437
2019-04-23T04:12:55.994Z,99804.203
2019-04-23T04:13:39.936Z,99805.703
2019-04-23T04:14:20.357Z,99809.578
2019-04-23T04:15:30.841Z,99805.343
2019-04-23T04:15:55.061Z,99804.375
2019-04-23T04:16:07.074Z,99809.382
2019-04-23T04:17:09.155Z,99808.609
2019-04-23T04:17:34.918Z,99806.031
2019-04-23T04:17:47.459Z,99808.578
2019-04-23T04:18:20.498Z,99806.343
2019-04-23T04:18:43.911Z,99808.25
2019-04-23T04:19:05.900Z,99809.296
2019-04-23T04:20:24.254Z,99807.718
2019-04-23T04:20:39.070Z,99806.14
2019-04-23T04:21:13.630Z,99808.406
2019-04-23T04:21:33.332Z,99811.515
2019-04-23T04:22:17.959Z,99806.546
2019-04-23T04:22:36.882Z,99803.953
2019-04-23T04:23:07.085Z,99806.054
2019-04-23T04:23:50.987Z,99806.984
2019-04-23T04:24:09.898Z,99807.625
2019-04-23T04:24:26.870Z,99807.992
2019-04-23T04:24:39.375Z,99808.921
2019-04-23T04:25:25.775Z,99810.015
2019-04-23T04:25:46.516Z,99808.765
2019-04-23T04:25:55.820Z,99808.117
2019-04-23T04:26:20.400Z,99805.203
2019-04-23T04:26:43.625Z,99804.875
2019-04-23T04:27:12.052Z,99807.39
2019-04-23T04:27:44.830Z,99809.406
2019-04-23T04:28:00.719Z,99806.734
2019-04-23T04:28:38.202Z,99809
2019-04-23T04:28:50.810Z,99809.32
2019-04-23T04:29:08.545Z,99807.859
2019-04-23T04:29:39.149Z,99810.242
2019-04-23T04:30:33.493Z,99811.531
2019-04-23T04:30:51.783Z,99810.89
2019-04-23T04:31:02.572Z,99810.687
2019-04-23T04:31:30.547Z,99805.195
2019-04-23T04:32:35.843Z,99812.335
2019-04-23T04:32:44.433Z,99810.687
2019-04-23T04:33:28.667Z,99811.64
2019-04-23T04:33:48.665Z,99809.265
2019-04-23T04:34:10.392Z,99805.984
2019-04-23T04:34:35.819Z,99806.796
2019-04-23T04:35:37.538Z,99808.921
2019-04-23T04:35:46.430Z,99810.867
2019-04-23T04:36:26.190Z,99809.093
2019-04-23T04:36:57.711Z,99806.328
2019-04-23T04:38:03.932Z,99806.015
2019-04-23T04:38:44.685Z,99809.476
2019-04-23T04:39:14.851Z,99813.593
2019-04-23T04:39:41.985Z,99807.945
2019-04-23T04:40:49.638Z,99810
2019-04-23T04:41:05.314Z,99810.484
2019-04-23T04:41:13.139Z,99809.789
2019-04-23T04:41:30.871Z,99807.75
2019-04-23T04:42:24.675Z,99804.484
2019-04-23T04:42:54.120Z,99806.343
2019-04-23T04:43:22.127Z,99810.375
2019-04-23T04:43:31.123Z,99808.062
2019-04-23T04:43:50.463Z,99812.234
2019-04-23T04:44:16.810Z,99809.281
2019-04-23T04:44:37.136Z,99808.296
2019-04-23T04:44:45.946Z,99806.156
2019-04-23T04:45:12.056Z,99809.218
2019-04-23T04:46:12.128Z,99807.968
2019-04-23T04:46:38.453Z,99806.742
2019-04-23T04:46:58.108Z,99807.171